sensor_id;sensor_type;location;lat;lon;timestamp;temperature;humidity
2112;DHT22;1062;52.538;13.400;2022-07-29T00:01:51;15.80;99.90
2112;DHT22;1062;52.538;13.400;2022-07-29T00:04:18;15.80;99.90
2112;DHT22;1062;52.538;13.400;2022-07-29T00:06:43;15.80;99.90
2112;DHT22;1062;52.538;13.400;2022-07-29T00:09:09;15.80;99.90
2112;DHT22;1062;52.538;13.400;2022-07-29T00:11:35;15.70;99.90
2112;DHT22;1062;52.538;13.400;2022-07-29T00:14:01;15.70;99.90
2112;DHT22;1062;52.538;13.400;2022-07-29T00:16:26;15.70;99.90
2112;DHT22;1062;52.538;13.400;2022-07-29T00:18:52;15.60;99.90
2112;DHT22;1062;52.538;13.400;2022-07-29T00:21:17;15.70;99.90
2112;DHT22;1062;52.538;13.400;2022-07-29T00:23:43;15.60;99.90
2112;DHT22;1062;52.538;13.400;2022-07-29T00:26:08;15.60;99.90
2112;DHT22;1062;52.538;13.400;2022-07-29T00:28:34;15.60;99.90
2112;DHT22;1062;52.538;13.400;2022-07-29T00:31:00;15.50;99.90
2112;DHT22;1062;52.538;13.400;2022-07-29T00:33:26;15.50;99.90
2112;DHT22;1062;52.538;13.400;2022-07-29T00:35:51;15.40;99.90
2112;DHT22;1062;52.538;13.400;2022-07-29T00:38:18;15.50;99.90
2112;DHT22;1062;52.538;13.400;2022-07-29T00:40:45;15.40;99.90
2112;DHT22;1062;52.538;13.400;2022-07-29T00:43:12;15.40;99.90
2112;DHT22;1062;52.538;13.400;2022-07-29T00:45:39;15.40;99.90
2112;DHT22;1062;52.538;13.400;2022-07-29T00:48:05;15.30;99.90
2112;DHT22;1062;52.538;13.400;2022-07-29T00:50:32;15.40;99.90
2112;DHT22;1062;52.538;13.400;2022-07-29T00:52:58;15.30;99.90
2112;DHT22;1062;52.538;13.400;2022-07-29T00:55:24;15.40;99.90
2112;DHT22;1062;52.538;13.400;2022-07-29T00:57:50;15.40;99.90
2112;DHT22;1062;52.538;13.400;2022-07-29T01:00:19;15.40;99.90
2112;DHT22;1062;52.538;13.400;2022-07-29T01:02:46;15.40;99.90
2112;DHT22;1062;52.538;13.400;2022-07-29T01:05:14;15.30;99.90
2112;DHT22;1062;52.538;13.400;2022-07-29T01:07:41;15.30;99.90
2112;DHT22;1062;52.538;13.400;2022-07-29T01:10:08;15.20;99.90
2112;DHT22;1062;52.538;13.400;2022-07-29T01:12:35;15.20;99.90
2112;DHT22;1062;52.538;13.400;2022-07-29T01:15:03;15.10;99.90
2112;DHT22;1062;52.538;13.400;2022-07-29T01:17:38;15.10;99.90
2112;DHT22;1062;52.538;13.400;2022-07-29T01:20:44;15.10;99.90
2112;DHT22;1062;52.538;13.400;2022-07-29T01:23:19;15.10;99.90
2112;DHT22;1062;52.538;13.400;2022-07-29T01:31:47;15.00;99.90
2112;DHT22;1062;52.538;13.400;2022-07-29T01:37:15;14.90;99.90
2112;DHT22;1062;52.538;13.400;2022-07-29T01:39:46;14.90;99.90
2112;DHT22;1062;52.538;13.400;2022-07-29T01:42:30;14.80;99.90
2112;DHT22;1062;52.538;13.400;2022-07-29T01:45:02;14.80;99.90
2112;DHT22;1062;52.538;13.400;2022-07-29T01:47:35;14.80;99.90
2112;DHT22;1062;52.538;13.400;2022-07-29T01:50:06;14.80;99.90
2112;DHT22;1062;52.538;13.400;2022-07-29T01:53:03;14.80;99.90
2112;DHT22;1062;52.538;13.400;2022-07-29T01:55:32;14.70;99.90
2112;DHT22;1062;52.538;13.400;2022-07-29T01:58:00;14.70;99.90
2112;DHT22;1062;52.538;13.400;2022-07-29T02:00:30;14.70;99.90
2112;DHT22;1062;52.538;13.400;2022-07-29T02:02:59;14.60;99.90
2112;DHT22;1062;52.538;13.400;2022-07-29T02:05:27;14.60;99.90
2112;DHT22;1062;52.538;13.400;2022-07-29T02:07:55;14.60;99.90
2112;DHT22;1062;52.538;13.400;2022-07-29T02:10:23;14.60;99.90
2112;DHT22;1062;52.538;13.400;2022-07-29T02:12:50;14.50;99.90
2112;DHT22;1062;52.538;13.400;2022-07-29T02:15:16;14.40;99.90
2112;DHT22;1062;52.538;13.400;2022-07-29T02:17:51;14.50;99.90
2112;DHT22;1062;52.538;13.400;2022-07-29T02:20:19;14.50;99.90
2112;DHT22;1062;52.538;13.400;2022-07-29T02:22:45;14.40;99.90
2112;DHT22;1062;52.538;13.400;2022-07-29T02:25:12;14.40;99.90
2112;DHT22;1062;52.538;13.400;2022-07-29T02:27:40;14.40;99.90
2112;DHT22;1062;52.538;13.400;2022-07-29T02:30:07;14.30;99.90
2112;DHT22;1062;52.538;13.400;2022-07-29T02:32:35;14.40;99.90
2112;DHT22;1062;52.538;13.400;2022-07-29T02:35:02;14.40;99.90
2112;DHT22;1062;52.538;13.400;2022-07-29T02:37:29;14.40;99.90
2112;DHT22;1062;52.538;13.400;2022-07-29T02:39:57;14.40;99.90
2112;DHT22;1062;52.538;13.400;2022-07-29T02:42:24;14.40;99.90
2112;DHT22;1062;52.538;13.400;2022-07-29T02:44:51;14.30;99.90
2112;DHT22;1062;52.538;13.400;2022-07-29T02:47:21;14.30;99.90
2112;DHT22;1062;52.538;13.400;2022-07-29T02:49:57;14.40;99.90
2112;DHT22;1062;52.538;13.400;2022-07-29T02:52:34;14.40;99.90
2112;DHT22;1062;52.538;13.400;2022-07-29T02:55:16;14.40;99.90
2112;DHT22;1062;52.538;13.400;2022-07-29T02:57:51;14.40;99.90
2112;DHT22;1062;52.538;13.400;2022-07-29T03:00:21;14.40;99.90
2112;DHT22;1062;52.538;13.400;2022-07-29T03:02:51;14.40;99.90
2112;DHT22;1062;52.538;13.400;2022-07-29T03:05:19;14.40;99.90
2112;DHT22;1062;52.538;13.400;2022-07-29T03:07:48;14.40;99.90
2112;DHT22;1062;52.538;13.400;2022-07-29T03:10:14;14.40;99.90
2112;DHT22;1062;52.538;13.400;2022-07-29T03:12:41;14.50;99.90
2112;DHT22;1062;52.538;13.400;2022-07-29T03:15:08;14.60;99.90
2112;DHT22;1062;52.538;13.400;2022-07-29T03:17:34;14.50;99.90
2112;DHT22;1062;52.538;13.400;2022-07-29T03:20:00;14.60;99.90
2112;DHT22;1062;52.538;13.400;2022-07-29T03:22:26;14.70;99.90
2112;DHT22;1062;52.538;13.400;2022-07-29T03:24:52;14.60;99.90
2112;DHT22;1062;52.538;13.400;2022-07-29T03:27:17;14.70;99.90
2112;DHT22;1062;52.538;13.400;2022-07-29T03:29:43;14.70;99.90
2112;DHT22;1062;52.538;13.400;2022-07-29T03:32:08;14.70;99.90
2112;DHT22;1062;52.538;13.400;2022-07-29T03:34:35;14.70;99.90
2112;DHT22;1062;52.538;13.400;2022-07-29T03:37:01;14.80;99.90
2112;DHT22;1062;52.538;13.400;2022-07-29T03:39:30;14.70;99.90
2112;DHT22;1062;52.538;13.400;2022-07-29T03:41:58;14.70;99.90
2112;DHT22;1062;52.538;13.400;2022-07-29T03:44:26;14.70;99.90
2112;DHT22;1062;52.538;13.400;2022-07-29T03:46:54;14.70;99.90
2112;DHT22;1062;52.538;13.400;2022-07-29T03:49:21;14.80;99.90
2112;DHT22;1062;52.538;13.400;2022-07-29T03:51:48;14.80;99.90
2112;DHT22;1062;52.538;13.400;2022-07-29T03:54:14;14.80;99.90
2112;DHT22;1062;52.538;13.400;2022-07-29T03:56:42;14.80;99.90
2112;DHT22;1062;52.538;13.400;2022-07-29T03:59:10;14.80;99.90
2112;DHT22;1062;52.538;13.400;2022-07-29T04:01:37;14.90;99.90
2112;DHT22;1062;52.538;13.400;2022-07-29T04:04:03;14.90;99.90
2112;DHT22;1062;52.538;13.400;2022-07-29T04:06:40;15.00;99.90
2112;DHT22;1062;52.538;13.400;2022-07-29T04:09:06;14.90;99.90
2112;DHT22;1062;52.538;13.400;2022-07-29T04:11:32;14.90;99.90
2112;DHT22;1062;52.538;13.400;2022-07-29T04:13:58;15.00;99.90
2112;DHT22;1062;52.538;13.400;2022-07-29T04:16:23;15.00;99.90
2112;DHT22;1062;52.538;13.400;2022-07-29T04:18:49;15.10;99.90
2112;DHT22;1062;52.538;13.400;2022-07-29T04:21:14;15.20;99.90
2112;DHT22;1062;52.538;13.400;2022-07-29T04:23:40;15.30;99.90
2112;DHT22;1062;52.538;13.400;2022-07-29T04:26:06;15.30;99.90
2112;DHT22;1062;52.538;13.400;2022-07-29T04:28:34;15.40;99.90
2112;DHT22;1062;52.538;13.400;2022-07-29T04:31:00;15.40;99.90
2112;DHT22;1062;52.538;13.400;2022-07-29T04:33:26;15.50;99.90
2112;DHT22;1062;52.538;13.400;2022-07-29T04:35:51;15.50;99.90
2112;DHT22;1062;52.538;13.400;2022-07-29T04:38:17;15.50;99.90
2112;DHT22;1062;52.538;13.400;2022-07-29T04:40:42;15.50;99.90
2112;DHT22;1062;52.538;13.400;2022-07-29T04:43:08;15.70;99.90
2112;DHT22;1062;52.538;13.400;2022-07-29T04:45:33;15.80;99.90
2112;DHT22;1062;52.538;13.400;2022-07-29T04:47:59;15.80;99.90
2112;DHT22;1062;52.538;13.400;2022-07-29T04:50:24;15.80;99.90
2112;DHT22;1062;52.538;13.400;2022-07-29T04:52:50;15.90;99.90
2112;DHT22;1062;52.538;13.400;2022-07-29T04:55:16;15.90;99.90
2112;DHT22;1062;52.538;13.400;2022-07-29T04:57:41;15.90;99.90
2112;DHT22;1062;52.538;13.400;2022-07-29T05:00:07;15.90;99.90
2112;DHT22;1062;52.538;13.400;2022-07-29T05:02:33;15.90;99.90
2112;DHT22;1062;52.538;13.400;2022-07-29T05:04:59;15.90;99.90
2112;DHT22;1062;52.538;13.400;2022-07-29T05:07:24;16.00;99.90
2112;DHT22;1062;52.538;13.400;2022-07-29T05:09:50;16.10;99.90
2112;DHT22;1062;52.538;13.400;2022-07-29T05:12:15;16.10;99.90
2112;DHT22;1062;52.538;13.400;2022-07-29T05:14:41;16.20;99.90
2112;DHT22;1062;52.538;13.400;2022-07-29T05:17:06;16.30;99.90
2112;DHT22;1062;52.538;13.400;2022-07-29T05:19:32;16.50;99.90
2112;DHT22;1062;52.538;13.400;2022-07-29T05:21:57;16.70;99.90
2112;DHT22;1062;52.538;13.400;2022-07-29T05:24:23;16.90;99.90
2112;DHT22;1062;52.538;13.400;2022-07-29T05:26:48;16.90;99.90
2112;DHT22;1062;52.538;13.400;2022-07-29T05:29:14;17.20;99.90
2112;DHT22;1062;52.538;13.400;2022-07-29T05:31:39;17.40;99.90
2112;DHT22;1062;52.538;13.400;2022-07-29T05:34:05;17.50;99.90
2112;DHT22;1062;52.538;13.400;2022-07-29T05:36:31;17.30;99.90
2112;DHT22;1062;52.538;13.400;2022-07-29T05:38:56;17.30;99.90
2112;DHT22;1062;52.538;13.400;2022-07-29T05:41:22;17.40;99.90
2112;DHT22;1062;52.538;13.400;2022-07-29T05:43:48;17.40;99.90
2112;DHT22;1062;52.538;13.400;2022-07-29T05:46:13;17.50;99.90
2112;DHT22;1062;52.538;13.400;2022-07-29T05:48:39;17.40;99.90
2112;DHT22;1062;52.538;13.400;2022-07-29T05:51:05;17.30;99.90
2112;DHT22;1062;52.538;13.400;2022-07-29T05:53:31;17.20;99.90
2112;DHT22;1062;52.538;13.400;2022-07-29T05:55:56;17.10;99.90
2112;DHT22;1062;52.538;13.400;2022-07-29T05:58:22;17.20;99.90
2112;DHT22;1062;52.538;13.400;2022-07-29T06:00:47;17.30;99.90
2112;DHT22;1062;52.538;13.400;2022-07-29T06:03:13;17.40;99.90
2112;DHT22;1062;52.538;13.400;2022-07-29T06:05:38;17.60;99.90
2112;DHT22;1062;52.538;13.400;2022-07-29T06:08:04;17.80;99.90
2112;DHT22;1062;52.538;13.400;2022-07-29T06:10:35;17.80;99.90
2112;DHT22;1062;52.538;13.400;2022-07-29T06:13:00;18.00;99.90
2112;DHT22;1062;52.538;13.400;2022-07-29T06:15:26;18.30;99.90
2112;DHT22;1062;52.538;13.400;2022-07-29T06:17:51;18.30;99.90
2112;DHT22;1062;52.538;13.400;2022-07-29T06:20:18;18.60;99.90
2112;DHT22;1062;52.538;13.400;2022-07-29T06:22:43;19.30;99.90
2112;DHT22;1062;52.538;13.400;2022-07-29T06:25:09;20.00;99.90
2112;DHT22;1062;52.538;13.400;2022-07-29T06:27:34;20.80;99.90
2112;DHT22;1062;52.538;13.400;2022-07-29T06:30:00;20.90;99.90
2112;DHT22;1062;52.538;13.400;2022-07-29T06:32:27;20.90;99.90
2112;DHT22;1062;52.538;13.400;2022-07-29T06:34:52;21.10;99.90
2112;DHT22;1062;52.538;13.400;2022-07-29T06:37:18;20.70;99.90
2112;DHT22;1062;52.538;13.400;2022-07-29T06:39:43;20.70;99.90
2112;DHT22;1062;52.538;13.400;2022-07-29T06:42:09;20.50;99.90
2112;DHT22;1062;52.538;13.400;2022-07-29T06:44:34;20.50;99.90
2112;DHT22;1062;52.538;13.400;2022-07-29T06:47:01;20.40;99.90
2112;DHT22;1062;52.538;13.400;2022-07-29T06:49:26;20.20;99.90
2112;DHT22;1062;52.538;13.400;2022-07-29T06:51:53;20.30;99.90
2112;DHT22;1062;52.538;13.400;2022-07-29T06:54:18;20.30;99.90
2112;DHT22;1062;52.538;13.400;2022-07-29T06:56:44;20.30;99.90
2112;DHT22;1062;52.538;13.400;2022-07-29T06:59:11;20.10;99.90
2112;DHT22;1062;52.538;13.400;2022-07-29T07:01:41;20.40;99.90
2112;DHT22;1062;52.538;13.400;2022-07-29T07:04:07;20.40;99.90
2112;DHT22;1062;52.538;13.400;2022-07-29T07:06:36;20.40;99.90
2112;DHT22;1062;52.538;13.400;2022-07-29T07:09:02;20.50;99.90
2112;DHT22;1062;52.538;13.400;2022-07-29T07:11:28;20.60;99.90
2112;DHT22;1062;52.538;13.400;2022-07-29T07:13:54;20.80;99.90
2112;DHT22;1062;52.538;13.400;2022-07-29T07:16:19;20.90;99.90
2112;DHT22;1062;52.538;13.400;2022-07-29T07:18:45;21.50;99.90
2112;DHT22;1062;52.538;13.400;2022-07-29T07:21:11;22.00;99.90
2112;DHT22;1062;52.538;13.400;2022-07-29T07:23:37;22.30;99.90
2112;DHT22;1062;52.538;13.400;2022-07-29T07:26:03;22.50;99.90
2112;DHT22;1062;52.538;13.400;2022-07-29T07:28:30;22.80;99.90
2112;DHT22;1062;52.538;13.400;2022-07-29T07:30:55;23.10;99.90
2112;DHT22;1062;52.538;13.400;2022-07-29T07:33:21;23.70;99.70
2112;DHT22;1062;52.538;13.400;2022-07-29T07:35:47;24.40;98.50
2112;DHT22;1062;52.538;13.400;2022-07-29T07:38:13;24.70;96.40
2112;DHT22;1062;52.538;13.400;2022-07-29T07:40:38;25.10;96.40
2112;DHT22;1062;52.538;13.400;2022-07-29T07:43:04;25.70;95.00
2112;DHT22;1062;52.538;13.400;2022-07-29T07:45:29;25.20;94.70
2112;DHT22;1062;52.538;13.400;2022-07-29T07:47:57;26.00;92.20
2112;DHT22;1062;52.538;13.400;2022-07-29T07:50:23;26.30;91.30
2112;DHT22;1062;52.538;13.400;2022-07-29T07:52:52;26.50;90.20
2112;DHT22;1062;52.538;13.400;2022-07-29T07:55:19;27.20;88.60
2112;DHT22;1062;52.538;13.400;2022-07-29T07:57:45;27.80;85.70
2112;DHT22;1062;52.538;13.400;2022-07-29T08:00:12;27.90;82.60
2112;DHT22;1062;52.538;13.400;2022-07-29T08:02:39;28.20;80.80
2112;DHT22;1062;52.538;13.400;2022-07-29T08:05:08;28.40;78.80
2112;DHT22;1062;52.538;13.400;2022-07-29T08:07:34;28.80;77.10
2112;DHT22;1062;52.538;13.400;2022-07-29T08:09:59;28.80;76.60
2112;DHT22;1062;52.538;13.400;2022-07-29T08:12:25;28.80;73.00
2112;DHT22;1062;52.538;13.400;2022-07-29T08:14:50;28.90;72.40
2112;DHT22;1062;52.538;13.400;2022-07-29T08:17:16;28.90;69.80
2112;DHT22;1062;52.538;13.400;2022-07-29T08:19:42;28.50;70.40
2112;DHT22;1062;52.538;13.400;2022-07-29T08:22:07;28.10;72.00
2112;DHT22;1062;52.538;13.400;2022-07-29T08:24:33;28.90;70.30
2112;DHT22;1062;52.538;13.400;2022-07-29T08:27:17;29.00;68.20
2112;DHT22;1062;52.538;13.400;2022-07-29T08:29:43;29.70;66.60
2112;DHT22;1062;52.538;13.400;2022-07-29T08:32:08;28.90;66.00
2112;DHT22;1062;52.538;13.400;2022-07-29T08:34:34;28.80;66.90
2112;DHT22;1062;52.538;13.400;2022-07-29T08:36:59;29.50;65.80
2112;DHT22;1062;52.538;13.400;2022-07-29T08:39:25;29.60;64.60
2112;DHT22;1062;52.538;13.400;2022-07-29T08:41:51;29.90;63.00
2112;DHT22;1062;52.538;13.400;2022-07-29T08:44:20;29.00;62.40
2112;DHT22;1062;52.538;13.400;2022-07-29T08:46:50;28.50;63.60
2112;DHT22;1062;52.538;13.400;2022-07-29T08:49:17;28.00;64.50
2112;DHT22;1062;52.538;13.400;2022-07-29T08:51:43;27.70;64.50
2112;DHT22;1062;52.538;13.400;2022-07-29T08:54:09;28.10;62.90
2112;DHT22;1062;52.538;13.400;2022-07-29T08:56:38;28.00;62.30
2112;DHT22;1062;52.538;13.400;2022-07-29T08:59:05;27.40;63.10
2112;DHT22;1062;52.538;13.400;2022-07-29T09:01:33;26.90;65.10
2112;DHT22;1062;52.538;13.400;2022-07-29T09:03:59;26.40;66.20
2112;DHT22;1062;52.538;13.400;2022-07-29T09:06:31;26.10;68.50
2112;DHT22;1062;52.538;13.400;2022-07-29T09:08:58;26.30;68.20
2112;DHT22;1062;52.538;13.400;2022-07-29T09:11:24;26.50;68.30
2112;DHT22;1062;52.538;13.400;2022-07-29T09:13:50;26.40;68.20
2112;DHT22;1062;52.538;13.400;2022-07-29T09:16:16;26.30;67.60
2112;DHT22;1062;52.538;13.400;2022-07-29T09:18:43;26.30;68.10
2112;DHT22;1062;52.538;13.400;2022-07-29T09:21:11;26.80;67.40
2112;DHT22;1062;52.538;13.400;2022-07-29T09:24:07;27.30;65.50
2112;DHT22;1062;52.538;13.400;2022-07-29T09:26:39;27.70;65.40
2112;DHT22;1062;52.538;13.400;2022-07-29T09:29:20;28.10;63.50
2112;DHT22;1062;52.538;13.400;2022-07-29T09:31:51;27.90;64.00
2112;DHT22;1062;52.538;13.400;2022-07-29T09:34:24;27.90;62.60
2112;DHT22;1062;52.538;13.400;2022-07-29T09:36:52;27.40;63.10
2112;DHT22;1062;52.538;13.400;2022-07-29T09:39:39;27.10;63.20
2112;DHT22;1062;52.538;13.400;2022-07-29T09:42:13;26.80;64.20
2112;DHT22;1062;52.538;13.400;2022-07-29T09:44:52;27.00;64.50
2112;DHT22;1062;52.538;13.400;2022-07-29T09:47:18;26.70;63.60
2112;DHT22;1062;52.538;13.400;2022-07-29T09:49:55;26.10;64.80
2112;DHT22;1062;52.538;13.400;2022-07-29T09:52:23;26.10;65.40
2112;DHT22;1062;52.538;13.400;2022-07-29T09:54:50;25.90;64.90
2112;DHT22;1062;52.538;13.400;2022-07-29T09:57:25;25.80;64.50
2112;DHT22;1062;52.538;13.400;2022-07-29T10:00:07;25.70;65.00
2112;DHT22;1062;52.538;13.400;2022-07-29T10:02:35;25.80;65.20
2112;DHT22;1062;52.538;13.400;2022-07-29T10:05:03;25.70;65.50
2112;DHT22;1062;52.538;13.400;2022-07-29T10:07:51;26.10;65.00
2112;DHT22;1062;52.538;13.400;2022-07-29T10:10:23;26.60;63.20
2112;DHT22;1062;52.538;13.400;2022-07-29T10:12:55;26.50;62.60
2112;DHT22;1062;52.538;13.400;2022-07-29T10:15:26;26.30;62.60
2112;DHT22;1062;52.538;13.400;2022-07-29T10:17:53;26.10;61.70
2112;DHT22;1062;52.538;13.400;2022-07-29T10:20:20;26.10;61.10
2112;DHT22;1062;52.538;13.400;2022-07-29T10:22:47;26.20;60.50
2112;DHT22;1062;52.538;13.400;2022-07-29T10:25:14;26.20;59.30
2112;DHT22;1062;52.538;13.400;2022-07-29T10:27:40;26.30;59.20
2112;DHT22;1062;52.538;13.400;2022-07-29T10:30:06;26.10;59.30
2112;DHT22;1062;52.538;13.400;2022-07-29T10:35:34;26.00;60.00
2112;DHT22;1062;52.538;13.400;2022-07-29T10:43:31;25.70;59.80
2112;DHT22;1062;52.538;13.400;2022-07-29T10:46:01;26.00;60.20
2112;DHT22;1062;52.538;13.400;2022-07-29T10:48:28;26.00;59.80
2112;DHT22;1062;52.538;13.400;2022-07-29T10:51:04;26.00;60.90
2112;DHT22;1062;52.538;13.400;2022-07-29T10:53:50;26.30;60.50
2112;DHT22;1062;52.538;13.400;2022-07-29T10:56:34;26.20;60.70
2112;DHT22;1062;52.538;13.400;2022-07-29T11:01:45;26.30;60.00
2112;DHT22;1062;52.538;13.400;2022-07-29T11:04:10;26.50;59.50
2112;DHT22;1062;52.538;13.400;2022-07-29T11:09:23;26.40;59.60
2112;DHT22;1062;52.538;13.400;2022-07-29T11:11:49;26.40;59.40
2112;DHT22;1062;52.538;13.400;2022-07-29T11:14:15;26.30;59.20
2112;DHT22;1062;52.538;13.400;2022-07-29T11:17:03;26.40;59.40
2112;DHT22;1062;52.538;13.400;2022-07-29T11:19:30;26.30;59.00
2112;DHT22;1062;52.538;13.400;2022-07-29T11:21:56;26.30;59.70
2112;DHT22;1062;52.538;13.400;2022-07-29T11:24:22;26.70;60.00
2112;DHT22;1062;52.538;13.400;2022-07-29T11:27:09;26.90;59.80
2112;DHT22;1062;52.538;13.400;2022-07-29T11:32:14;26.90;60.00
2112;DHT22;1062;52.538;13.400;2022-07-29T11:34:41;27.30;59.50
2112;DHT22;1062;52.538;13.400;2022-07-29T11:47:37;27.70;59.30
2112;DHT22;1062;52.538;13.400;2022-07-29T11:50:05;27.50;59.90
2112;DHT22;1062;52.538;13.400;2022-07-29T11:52:42;27.10;60.40
2112;DHT22;1062;52.538;13.400;2022-07-29T11:55:11;27.10;62.10
2112;DHT22;1062;52.538;13.400;2022-07-29T11:57:46;27.10;61.60
2112;DHT22;1062;52.538;13.400;2022-07-29T12:00:30;27.00;61.60
2112;DHT22;1062;52.538;13.400;2022-07-29T12:03:00;26.90;63.10
2112;DHT22;1062;52.538;13.400;2022-07-29T12:05:39;26.90;62.10
2112;DHT22;1062;52.538;13.400;2022-07-29T12:10:31;26.80;64.20
2112;DHT22;1062;52.538;13.400;2022-07-29T12:12:57;26.80;65.30
2112;DHT22;1062;52.538;13.400;2022-07-29T12:15:23;27.00;65.50
2112;DHT22;1062;52.538;13.400;2022-07-29T12:17:49;27.00;66.40
2112;DHT22;1062;52.538;13.400;2022-07-29T12:20:26;27.00;65.50
2112;DHT22;1062;52.538;13.400;2022-07-29T12:22:52;27.00;66.30
2112;DHT22;1062;52.538;13.400;2022-07-29T12:25:20;27.10;66.90
2112;DHT22;1062;52.538;13.400;2022-07-29T12:27:46;27.10;68.00
2112;DHT22;1062;52.538;13.400;2022-07-29T12:30:14;26.90;68.50
2112;DHT22;1062;52.538;13.400;2022-07-29T12:32:46;26.80;69.20
2112;DHT22;1062;52.538;13.400;2022-07-29T12:35:14;26.90;70.00
2112;DHT22;1062;52.538;13.400;2022-07-29T12:37:42;27.20;70.00
2112;DHT22;1062;52.538;13.400;2022-07-29T12:40:09;27.30;70.10
2112;DHT22;1062;52.538;13.400;2022-07-29T12:42:36;27.00;70.50
2112;DHT22;1062;52.538;13.400;2022-07-29T12:45:03;26.90;70.50
2112;DHT22;1062;52.538;13.400;2022-07-29T12:47:29;27.20;69.70
2112;DHT22;1062;52.538;13.400;2022-07-29T12:50:14;27.20;68.20
2112;DHT22;1062;52.538;13.400;2022-07-29T12:52:43;27.10;69.40
2112;DHT22;1062;52.538;13.400;2022-07-29T12:55:09;27.50;69.90
2112;DHT22;1062;52.538;13.400;2022-07-29T12:57:49;27.70;69.00
2112;DHT22;1062;52.538;13.400;2022-07-29T13:00:16;27.70;68.80
2112;DHT22;1062;52.538;13.400;2022-07-29T13:02:42;27.50;69.80
2112;DHT22;1062;52.538;13.400;2022-07-29T13:05:09;27.40;69.40
2112;DHT22;1062;52.538;13.400;2022-07-29T13:07:36;27.40;69.40
2112;DHT22;1062;52.538;13.400;2022-07-29T13:10:20;27.40;69.50
2112;DHT22;1062;52.538;13.400;2022-07-29T13:13:21;27.50;68.80
2112;DHT22;1062;52.538;13.400;2022-07-29T13:16:05;27.60;68.40
2112;DHT22;1062;52.538;13.400;2022-07-29T13:18:34;28.00;67.50
2112;DHT22;1062;52.538;13.400;2022-07-29T13:21:15;28.00;66.90
2112;DHT22;1062;52.538;13.400;2022-07-29T13:23:41;28.30;65.90
2112;DHT22;1062;52.538;13.400;2022-07-29T13:26:11;27.80;66.50
2112;DHT22;1062;52.538;13.400;2022-07-29T13:28:37;27.60;67.80
2112;DHT22;1062;52.538;13.400;2022-07-29T13:31:03;27.90;67.90
2112;DHT22;1062;52.538;13.400;2022-07-29T13:33:29;28.00;66.80
2112;DHT22;1062;52.538;13.400;2022-07-29T13:35:55;28.10;67.30
2112;DHT22;1062;52.538;13.400;2022-07-29T13:38:21;28.30;66.50
2112;DHT22;1062;52.538;13.400;2022-07-29T13:40:47;28.00;66.30
2112;DHT22;1062;52.538;13.400;2022-07-29T13:43:13;28.20;66.20
2112;DHT22;1062;52.538;13.400;2022-07-29T13:45:38;28.30;65.90
2112;DHT22;1062;52.538;13.400;2022-07-29T13:48:04;28.30;66.20
2112;DHT22;1062;52.538;13.400;2022-07-29T13:50:31;28.30;66.70
2112;DHT22;1062;52.538;13.400;2022-07-29T13:52:57;28.30;65.80
2112;DHT22;1062;52.538;13.400;2022-07-29T13:55:22;28.30;66.30
2112;DHT22;1062;52.538;13.400;2022-07-29T13:57:48;28.30;66.70
2112;DHT22;1062;52.538;13.400;2022-07-29T14:00:14;28.10;66.90
2112;DHT22;1062;52.538;13.400;2022-07-29T14:02:40;27.70;67.40
2112;DHT22;1062;52.538;13.400;2022-07-29T14:05:07;27.90;67.40
2112;DHT22;1062;52.538;13.400;2022-07-29T14:07:33;27.90;67.30
2112;DHT22;1062;52.538;13.400;2022-07-29T14:09:58;27.80;66.80
2112;DHT22;1062;52.538;13.400;2022-07-29T14:12:24;27.70;67.40
2112;DHT22;1062;52.538;13.400;2022-07-29T14:14:49;27.70;67.10
2112;DHT22;1062;52.538;13.400;2022-07-29T14:17:15;27.80;67.30
2112;DHT22;1062;52.538;13.400;2022-07-29T14:19:41;27.60;67.50
2112;DHT22;1062;52.538;13.400;2022-07-29T14:22:07;27.60;68.20
2112;DHT22;1062;52.538;13.400;2022-07-29T14:24:33;27.70;68.10
2112;DHT22;1062;52.538;13.400;2022-07-29T14:26:59;27.70;68.40
2112;DHT22;1062;52.538;13.400;2022-07-29T14:29:25;27.70;67.50
2112;DHT22;1062;52.538;13.400;2022-07-29T14:31:50;28.00;67.70
2112;DHT22;1062;52.538;13.400;2022-07-29T14:34:16;28.10;66.40
2112;DHT22;1062;52.538;13.400;2022-07-29T14:36:41;28.00;66.10
2112;DHT22;1062;52.538;13.400;2022-07-29T14:39:07;28.00;66.90
2112;DHT22;1062;52.538;13.400;2022-07-29T14:41:33;28.00;67.30
2112;DHT22;1062;52.538;13.400;2022-07-29T14:43:59;28.00;66.50
2112;DHT22;1062;52.538;13.400;2022-07-29T14:46:27;27.90;66.40
2112;DHT22;1062;52.538;13.400;2022-07-29T14:48:54;27.70;67.10
2112;DHT22;1062;52.538;13.400;2022-07-29T14:51:20;27.60;67.30
2112;DHT22;1062;52.538;13.400;2022-07-29T14:53:45;27.60;67.50
2112;DHT22;1062;52.538;13.400;2022-07-29T14:56:11;27.60;68.00
2112;DHT22;1062;52.538;13.400;2022-07-29T14:58:36;27.60;67.20
2112;DHT22;1062;52.538;13.400;2022-07-29T15:01:02;27.60;66.40
2112;DHT22;1062;52.538;13.400;2022-07-29T15:03:28;27.60;65.20
2112;DHT22;1062;52.538;13.400;2022-07-29T15:05:54;27.70;65.60
2112;DHT22;1062;52.538;13.400;2022-07-29T15:08:20;27.90;65.40
2112;DHT22;1062;52.538;13.400;2022-07-29T15:10:45;28.20;65.10
2112;DHT22;1062;52.538;13.400;2022-07-29T15:13:11;28.30;64.60
2112;DHT22;1062;52.538;13.400;2022-07-29T15:15:37;28.20;63.30
2112;DHT22;1062;52.538;13.400;2022-07-29T15:18:03;28.20;65.20
2112;DHT22;1062;52.538;13.400;2022-07-29T15:20:28;28.40;64.20
2112;DHT22;1062;52.538;13.400;2022-07-29T15:22:54;28.50;64.00
2112;DHT22;1062;52.538;13.400;2022-07-29T15:25:24;28.50;63.30
2112;DHT22;1062;52.538;13.400;2022-07-29T15:27:50;28.60;63.60
2112;DHT22;1062;52.538;13.400;2022-07-29T15:30:16;28.40;63.40
2112;DHT22;1062;52.538;13.400;2022-07-29T15:32:43;28.30;63.90
2112;DHT22;1062;52.538;13.400;2022-07-29T15:35:09;28.10;63.90
2112;DHT22;1062;52.538;13.400;2022-07-29T15:37:38;27.80;63.70
2112;DHT22;1062;52.538;13.400;2022-07-29T15:40:06;27.70;64.70
2112;DHT22;1062;52.538;13.400;2022-07-29T15:42:31;27.70;64.20
2112;DHT22;1062;52.538;13.400;2022-07-29T15:44:59;27.50;64.80
2112;DHT22;1062;52.538;13.400;2022-07-29T15:47:28;27.50;65.20
2112;DHT22;1062;52.538;13.400;2022-07-29T15:49:53;27.60;65.30
2112;DHT22;1062;52.538;13.400;2022-07-29T15:52:19;27.50;65.00
2112;DHT22;1062;52.538;13.400;2022-07-29T15:54:45;27.40;65.30
2112;DHT22;1062;52.538;13.400;2022-07-29T15:57:11;27.30;65.40
2112;DHT22;1062;52.538;13.400;2022-07-29T15:59:37;27.20;66.00
2112;DHT22;1062;52.538;13.400;2022-07-29T16:02:03;27.10;66.00
2112;DHT22;1062;52.538;13.400;2022-07-29T16:04:29;27.00;66.30
2112;DHT22;1062;52.538;13.400;2022-07-29T16:06:54;26.90;66.50
2112;DHT22;1062;52.538;13.400;2022-07-29T16:09:20;26.90;66.30
2112;DHT22;1062;52.538;13.400;2022-07-29T16:11:46;27.00;66.60
2112;DHT22;1062;52.538;13.400;2022-07-29T16:14:15;27.10;66.20
2112;DHT22;1062;52.538;13.400;2022-07-29T16:16:41;27.10;66.20
2112;DHT22;1062;52.538;13.400;2022-07-29T16:19:07;27.10;65.90
2112;DHT22;1062;52.538;13.400;2022-07-29T16:21:34;27.00;65.70
2112;DHT22;1062;52.538;13.400;2022-07-29T16:24:00;27.10;65.80
2112;DHT22;1062;52.538;13.400;2022-07-29T16:26:26;27.10;65.70
2112;DHT22;1062;52.538;13.400;2022-07-29T16:28:52;27.10;66.00